Asahikawa, Japan
Current Conditions -  °F | °C
As of 8:00 PM on Saturday 25 Oct 2014 (Local Time) from RJEC Reporting Station
Broken Clouds Broken Clouds  
Wind Chill: 57°   Ceiling: Unl
Heat Index: 57°   Visibility: 6mi
Dew Point: 48°   Wind: 15mph
Humidity: 72%   Direction: 180°S
Pressure: 30.03"   Gusts: NA
Location:  43.77°N, 142.36°E
Report Text: RJEC 251100Z 18013KT 9999 FEW030 SCT120 BKN/// 14/09 Q1017
Loading
Personal Weather Stations






























Interactive Weather Map
Tropical Storm Tracking
New forecast layout! Learn more

10-Day Weather Forecast

Advertisements
Track Severe Weather on mobile